Time;durP1;ratioP1;P1;durP2;ratioP2;P2;SDS_P1;SDS_P2;PMS_P1;PMS_P2;Temp;Humidity;BMP_temperature;BMP_pressure;BME280_temperature;BME280_humidity;BME280_pressure;Samples;Min_cycle;Max_cycle;Signal;HPM_P1;HPM_P2
2021/06/24 00:01:06;;;;;;;5.00;3.50;;;16.80;99.90;;;;;;4991398;28;20426;-67
2021/06/24 00:03:33;;;;;;;3.77;3.40;;;16.80;99.90;;;;;;4981975;28;20176;-67
2021/06/24 00:05:59;;;;;;;3.10;2.90;;;16.70;99.90;;;;;;4973183;28;20452;-67
2021/06/24 00:08:25;;;;;;;3.60;3.37;;;16.70;99.90;;;;;;4972770;28;20554;-67
2021/06/24 00:10:53;;;;;;;5.40;4.80;;;16.80;99.90;;;;;;4973243;28;20474;-67
2021/06/24 00:13:19;;;;;;;5.70;4.67;;;16.80;99.90;;;;;;4973125;28;20435;-67
2021/06/24 00:15:45;;;;;;;5.00;4.60;;;16.80;99.90;;;;;;4973069;28;20443;-67
2021/06/24 00:18:11;;;;;;;5.40;4.93;;;16.80;99.90;;;;;;4972976;28;20936;-67
2021/06/24 00:20:38;;;;;;;5.60;5.13;;;16.80;99.90;;;;;;4973098;28;20435;-66
2021/06/24 00:23:04;;;;;;;6.70;6.20;;;16.80;99.90;;;;;;4973075;28;20172;-67
2021/06/24 00:25:30;;;;;;;5.87;5.37;;;16.80;99.90;;;;;;4973012;28;20443;-68
2021/06/24 00:27:55;;;;;;;6.60;6.10;;;16.80;99.90;;;;;;4973325;28;20455;-66
2021/06/24 00:30:21;;;;;;;9.40;6.97;;;16.80;99.90;;;;;;4972697;28;20661;-68
2021/06/24 00:32:47;;;;;;;8.27;7.57;;;16.80;99.90;;;;;;4973005;28;20177;-66
2021/06/24 00:35:14;;;;;;;8.80;8.00;;;16.80;99.90;;;;;;4972907;28;20180;-68
2021/06/24 00:37:40;;;;;;;6.97;6.37;;;16.80;99.90;;;;;;4972951;28;20173;-67
2021/06/24 00:40:07;;;;;;;9.63;8.83;;;16.80;99.90;;;;;;4972665;28;20455;-67
2021/06/24 00:42:34;;;;;;;8.70;8.00;;;16.80;99.90;;;;;;4972962;28;20514;-68
2021/06/24 00:45:00;;;;;;;9.27;8.50;;;16.90;99.90;;;;;;4972682;28;20790;-67
2021/06/24 00:47:26;;;;;;;10.97;9.97;;;16.90;99.90;;;;;;4973077;28;20464;-67
2021/06/24 00:49:51;;;;;;;9.13;8.43;;;16.90;99.90;;;;;;4971526;28;20248;-67
2021/06/24 00:52:17;;;;;;;8.10;7.40;;;17.00;99.90;;;;;;4972805;28;20179;-67
2021/06/24 00:54:43;;;;;;;10.10;9.40;;;17.10;99.90;;;;;;4972820;28;20172;-67
2021/06/24 00:57:09;;;;;;;8.90;8.30;;;17.20;99.90;;;;;;4972696;28;20196;-67
2021/06/24 00:59:35;;;;;;;7.53;7.03;;;17.10;99.90;;;;;;4972436;28;20164;-67
2021/06/24 01:02:03;;;;;;;7.90;7.30;;;17.20;99.90;;;;;;4975867;28;20861;-67
2021/06/24 01:04:28;;;;;;;6.97;6.47;;;17.20;99.90;;;;;;4994563;28;20419;-68
2021/06/24 01:06:54;;;;;;;7.23;6.63;;;17.20;99.90;;;;;;4995617;28;20461;-67
2021/06/24 01:09:20;;;;;;;6.17;5.67;;;17.20;99.90;;;;;;4995415;28;20168;-67
2021/06/24 01:11:46;;;;;;;6.40;6.00;;;17.20;99.90;;;;;;4995500;28;20233;-67
2021/06/24 01:14:12;;;;;;;7.00;6.50;;;17.20;99.90;;;;;;4995528;28;20163;-68
2021/06/24 01:16:38;;;;;;;5.90;5.40;;;17.20;99.90;;;;;;4995748;28;20438;-67
2021/06/24 01:19:05;;;;;;;5.20;4.80;;;17.20;99.90;;;;;;4995257;28;20187;-67
2021/06/24 01:21:31;;;;;;;6.70;6.10;;;17.30;99.90;;;;;;4995487;28;20928;-67
2021/06/24 01:23:56;;;;;;;6.23;5.73;;;17.30;99.90;;;;;;4995371;28;20509;-67
2021/06/24 01:26:22;;;;;;;5.53;5.23;;;17.30;99.90;;;;;;4995196;28;20497;-68
2021/06/24 01:28:48;;;;;;;5.50;5.00;;;17.30;99.90;;;;;;4995435;28;20183;-68
2021/06/24 01:31:15;;;;;;;4.67;4.37;;;17.40;99.90;;;;;;4995496;28;20438;-68
2021/06/24 01:33:42;;;;;;;4.63;4.33;;;17.40;99.90;;;;;;4995223;28;20457;-67
2021/06/24 01:36:07;;;;;;;3.90;3.70;;;17.40;99.90;;;;;;4994076;28;20447;-67
2021/06/24 01:38:34;;;;;;;4.33;4.03;;;17.40;99.90;;;;;;4994833;28;20502;-68
2021/06/24 01:41:00;;;;;;;4.40;3.97;;;17.40;99.90;;;;;;4995530;28;20178;-67
2021/06/24 01:43:26;;;;;;;4.47;4.07;;;17.40;99.90;;;;;;4994839;28;20418;-68
2021/06/24 01:45:54;;;;;;;4.50;4.20;;;17.40;99.90;;;;;;4995043;28;20458;-67
2021/06/24 01:48:20;;;;;;;4.50;4.20;;;17.40;99.90;;;;;;4994723;28;20481;-67
2021/06/24 01:50:46;;;;;;;5.23;4.57;;;17.50;99.90;;;;;;4994877;28;20415;-67
2021/06/24 01:53:12;;;;;;;5.17;4.67;;;17.50;99.90;;;;;;4994881;28;20477;-67
2021/06/24 01:55:40;;;;;;;6.60;6.07;;;17.40;99.90;;;;;;4994770;28;20469;-68
2021/06/24 01:58:07;;;;;;;11.30;6.40;;;17.40;99.90;;;;;;4994595;28;20418;-67
2021/06/24 02:00:34;;;;;;;7.13;6.53;;;17.40;99.90;;;;;;4993229;28;20434;-67
2021/06/24 02:03:02;;;;;;;6.43;5.83;;;17.40;99.90;;;;;;4994673;28;20458;-68
2021/06/24 02:05:27;;;;;;;6.37;5.77;;;17.40;99.90;;;;;;4994601;28;20447;-67
2021/06/24 02:07:53;;;;;;;7.23;6.63;;;17.50;99.90;;;;;;4994597;28;20561;-68
2021/06/24 02:10:19;;;;;;;6.73;6.13;;;17.50;99.90;;;;;;4994286;28;20194;-67
2021/06/24 02:12:45;;;;;;;6.00;5.50;;;17.40;99.90;;;;;;4993888;28;20183;-67
2021/06/24 02:15:13;;;;;;;6.80;6.30;;;17.30;99.90;;;;;;4994481;28;20833;-67
2021/06/24 02:17:39;;;;;;;7.23;6.00;;;17.30;99.90;;;;;;4994500;28;20422;-67
2021/06/24 02:20:14;;;;;;;6.03;5.30;;;17.30;99.90;;;;;;4994131;28;20775;-68
2021/06/24 02:22:41;;;;;;;6.17;5.67;;;17.30;99.90;;;;;;4994409;28;20418;-68
2021/06/24 02:25:08;;;;;;;7.27;6.57;;;17.40;99.90;;;;;;4994131;28;20803;-68
2021/06/24 02:27:34;;;;;;;6.17;5.67;;;17.30;99.90;;;;;;4994092;28;20548;-68
2021/06/24 02:29:59;;;;;;;6.33;5.83;;;17.20;99.90;;;;;;4994135;28;20415;-67
2021/06/24 02:32:26;;;;;;;5.67;5.27;;;17.20;99.90;;;;;;4994216;28;20422;-67
2021/06/24 02:34:52;;;;;;;7.27;5.63;;;17.20;99.90;;;;;;4994104;28;20171;-68
2021/06/24 02:37:17;;;;;;;5.90;5.40;;;17.20;99.90;;;;;;4994048;28;20454;-68
2021/06/24 02:39:43;;;;;;;5.47;5.07;;;17.30;99.90;;;;;;4993653;28;20425;-67
2021/06/24 02:42:09;;;;;;;4.63;4.33;;;17.40;99.90;;;;;;4994148;28;20175;-67
2021/06/24 02:44:34;;;;;;;4.63;4.33;;;17.30;99.90;;;;;;4993957;28;20176;-67
2021/06/24 02:47:00;;;;;;;4.60;4.30;;;17.30;99.90;;;;;;4993739;28;20223;-67
2021/06/24 02:49:25;;;;;;;5.30;4.90;;;17.30;99.90;;;;;;4993585;28;20550;-68
2021/06/24 02:51:51;;;;;;;5.77;5.27;;;17.20;99.90;;;;;;4993874;28;20196;-67
2021/06/24 02:54:18;;;;;;;9.83;6.30;;;17.20;99.90;;;;;;4993670;28;20668;-67
2021/06/24 02:56:44;;;;;;;5.60;4.80;;;17.10;99.90;;;;;;4993544;28;20194;-67
2021/06/24 02:59:10;;;;;;;6.47;4.73;;;17.00;99.90;;;;;;4993406;28;20418;-67
2021/06/24 03:01:36;;;;;;;5.30;4.90;;;16.90;99.90;;;;;;4993692;28;20262;-68
2021/06/24 03:04:04;;;;;;;4.63;4.33;;;16.90;99.90;;;;;;4993555;28;21017;-67
2021/06/24 03:06:29;;;;;;;4.63;4.23;;;16.80;99.90;;;;;;4993392;28;20525;-67
2021/06/24 03:08:55;;;;;;;5.43;5.03;;;16.80;99.90;;;;;;4993160;28;20831;-67
2021/06/24 03:11:21;;;;;;;5.23;4.73;;;16.80;99.90;;;;;;4993343;28;20195;-67
2021/06/24 03:13:49;;;;;;;5.33;4.93;;;16.90;99.90;;;;;;4993602;28;20164;-67
2021/06/24 03:16:15;;;;;;;5.77;5.37;;;16.90;99.90;;;;;;4993279;28;20275;-67
2021/06/24 03:18:40;;;;;;;5.60;5.20;;;16.90;99.90;;;;;;4993009;28;20569;-67
2021/06/24 03:21:06;;;;;;;6.17;5.57;;;17.00;99.90;;;;;;4993212;28;20410;-67
2021/06/24 03:23:32;;;;;;;5.90;5.50;;;17.10;99.90;;;;;;4992786;28;20226;-67
2021/06/24 03:25:57;;;;;;;6.60;6.10;;;17.00;99.90;;;;;;4992674;28;20282;-68
2021/06/24 03:28:23;;;;;;;5.70;5.20;;;17.00;99.90;;;;;;4991523;28;20211;-68
2021/06/24 03:30:49;;;;;;;5.70;5.40;;;17.00;99.90;;;;;;4993074;28;20539;-67
2021/06/24 03:33:14;;;;;;;9.70;5.30;;;17.00;99.90;;;;;;4993110;28;20199;-68
2021/06/24 03:35:40;;;;;;;6.67;6.07;;;17.00;99.90;;;;;;4993003;28;20238;-67
2021/06/24 03:38:05;;;;;;;6.80;5.40;;;16.90;99.90;;;;;;4992892;28;20245;-68
2021/06/24 03:40:31;;;;;;;5.60;5.03;;;17.00;99.90;;;;;;4991406;28;20179;-68
2021/06/24 03:42:57;;;;;;;7.40;5.87;;;17.10;99.90;;;;;;4992901;28;20203;-68
2021/06/24 03:45:23;;;;;;;6.30;5.50;;;17.00;99.90;;;;;;4993313;28;20231;-66
2021/06/24 03:47:48;;;;;;;6.23;5.73;;;17.10;99.90;;;;;;4992816;28;20505;-67
2021/06/24 03:50:14;;;;;;;5.33;4.83;;;17.20;99.90;;;;;;4992560;28;20497;-68
2021/06/24 03:52:40;;;;;;;5.30;4.80;;;17.20;99.90;;;;;;4992739;28;20251;-67
2021/06/24 03:55:08;;;;;;;8.30;4.70;;;17.20;99.90;;;;;;4992677;28;20419;-68
2021/06/24 03:57:34;;;;;;;4.97;4.67;;;17.10;99.90;;;;;;4992635;28;20172;-67
2021/06/24 03:59:59;;;;;;;4.70;4.40;;;17.30;99.90;;;;;;4992467;28;20426;-66
2021/06/24 04:02:25;;;;;;;6.13;5.63;;;17.40;99.90;;;;;;4992670;28;20225;-68
2021/06/24 04:04:50;;;;;;;8.10;5.47;;;17.40;99.90;;;;;;4992746;28;20218;-66
2021/06/24 04:07:16;;;;;;;6.17;5.67;;;17.40;99.90;;;;;;4992406;28;20645;-66
2021/06/24 04:09:42;;;;;;;6.53;5.93;;;17.40;99.90;;;;;;4992328;28;20180;-67
2021/06/24 04:12:07;;;;;;;10.50;6.73;;;17.40;99.90;;;;;;4992490;28;20254;-67
2021/06/24 04:14:33;;;;;;;6.87;6.37;;;17.60;99.90;;;;;;4992605;28;20234;-67
2021/06/24 04:16:58;;;;;;;4.43;4.13;;;17.70;99.90;;;;;;4992552;28;20249;-67
2021/06/24 04:19:24;;;;;;;4.87;4.50;;;17.80;99.90;;;;;;4992312;28;20587;-66
2021/06/24 04:21:49;;;;;;;5.57;5.03;;;17.80;99.90;;;;;;4992379;28;20634;-66
2021/06/24 04:24:15;;;;;;;8.40;4.77;;;17.90;99.90;;;;;;4992529;28;20167;-67
2021/06/24 04:26:41;;;;;;;4.53;4.13;;;17.80;99.90;;;;;;4992268;28;20194;-66
2021/06/24 04:29:06;;;;;;;8.87;4.70;;;17.90;99.90;;;;;;4992207;28;20168;-67
2021/06/24 04:31:32;;;;;;;4.90;4.50;;;18.00;99.90;;;;;;4992533;28;20175;-67
2021/06/24 04:33:57;;;;;;;4.63;4.27;;;18.00;99.90;;;;;;4992503;28;20175;-68
2021/06/24 04:36:23;;;;;;;4.23;3.93;;;17.90;99.90;;;;;;4994552;28;20198;-66
2021/06/24 04:38:49;;;;;;;4.03;3.73;;;17.90;99.90;;;;;;4996049;28;20183;-66
2021/06/24 04:41:14;;;;;;;4.30;3.97;;;18.00;99.90;;;;;;4996154;28;20415;-67
2021/06/24 04:43:40;;;;;;;4.30;4.00;;;18.00;99.90;;;;;;4996116;28;20233;-66
2021/06/24 04:46:05;;;;;;;4.50;3.47;;;18.10;99.90;;;;;;4994639;28;20293;-67
2021/06/24 04:48:31;;;;;;;4.60;4.20;;;18.10;99.90;;;;;;4995787;28;20290;-68
2021/06/24 04:50:56;;;;;;;3.80;3.50;;;18.20;99.90;;;;;;4995882;28;20593;-66
2021/06/24 04:53:22;;;;;;;3.80;3.50;;;18.30;99.90;;;;;;4995655;28;20194;-66
2021/06/24 04:55:48;;;;;;;6.10;3.63;;;18.40;99.90;;;;;;4995664;28;20199;-68
2021/06/24 04:58:13;;;;;;;4.10;3.80;;;18.50;99.90;;;;;;4995964;28;20183;-67
2021/06/24 05:00:39;;;;;;;4.10;3.80;;;18.60;99.90;;;;;;4989756;28;20183;-67
2021/06/24 05:03:09;;;;;;;9.63;4.30;;;18.60;99.90;;;;;;4992161;28;20191;-67
2021/06/24 05:05:34;;;;;;;4.57;4.17;;;18.70;99.90;;;;;;4994522;28;20192;-68
2021/06/24 05:08:21;;;;;;;4.07;3.70;;;18.80;99.90;;;;;;4997072;28;20827;-67
2021/06/24 05:10:46;;;;;;;4.43;3.93;;;18.80;99.90;;;;;;5014927;28;20175;-66
2021/06/24 05:13:12;;;;;;;4.80;3.90;;;18.80;99.90;;;;;;5012486;28;20782;-67
2021/06/24 05:15:42;;;;;;;5.23;4.80;;;18.90;99.90;;;;;;4995195;28;20204;-66
2021/06/24 05:18:07;;;;;;;3.90;3.50;;;19.00;99.90;;;;;;4995416;28;20175;-67
2021/06/24 05:20:33;;;;;;;3.80;3.60;;;19.10;99.90;;;;;;4995300;28;20430;-66
2021/06/24 05:22:59;;;;;;;4.93;4.40;;;19.20;99.90;;;;;;4995442;28;20552;-66
2021/06/24 05:25:24;;;;;;;4.30;3.87;;;19.20;99.90;;;;;;4993854;28;20751;-66
2021/06/24 05:27:50;;;;;;;4.17;3.83;;;19.40;99.90;;;;;;4993596;28;20223;-66
2021/06/24 05:30:16;;;;;;;4.20;3.17;;;19.70;99.90;;;;;;4995191;28;20644;-65
2021/06/24 05:32:42;;;;;;;3.70;3.40;;;19.70;99.90;;;;;;4995393;28;20180;-67
2021/06/24 05:35:08;;;;;;;3.70;3.40;;;19.60;99.90;;;;;;4995618;28;20919;-67
2021/06/24 05:37:34;;;;;;;4.40;4.00;;;19.60;99.90;;;;;;4995131;28;20184;-65
2021/06/24 05:40:00;;;;;;;4.20;3.90;;;19.70;99.90;;;;;;5006101;28;20810;-67
2021/06/24 05:42:25;;;;;;;3.80;3.40;;;19.90;99.90;;;;;;4989326;28;20443;-68
2021/06/24 05:44:51;;;;;;;4.33;4.03;;;20.20;99.90;;;;;;5005045;28;20181;-66
2021/06/24 05:47:16;;;;;;;4.33;4.03;;;20.50;99.90;;;;;;5013390;28;20214;-66
2021/06/24 05:49:42;;;;;;;4.13;3.47;;;20.60;99.90;;;;;;5014236;28;20175;-67
2021/06/24 05:52:07;;;;;;;4.60;4.30;;;20.80;99.90;;;;;;5014487;28;20167;-67
2021/06/24 05:54:33;;;;;;;4.50;4.20;;;20.80;99.90;;;;;;4990599;28;20208;-66
2021/06/24 05:56:58;;;;;;;5.70;3.60;;;20.90;99.90;;;;;;4975212;28;20244;-67
2021/06/24 05:59:24;;;;;;;4.07;3.73;;;21.10;99.90;;;;;;4977863;28;20206;-65
2021/06/24 06:01:51;;;;;;;5.40;3.77;;;21.30;99.90;;;;;;4975517;28;20255;-65
2021/06/24 06:04:17;;;;;;;7.80;4.23;;;21.50;99.90;;;;;;4987880;28;20222;-65
2021/06/24 06:06:42;;;;;;;4.60;4.20;;;21.70;99.90;;;;;;4989911;28;20858;-65
2021/06/24 06:09:08;;;;;;;4.13;3.80;;;21.80;99.90;;;;;;4985036;28;20226;-65
2021/06/24 06:11:34;;;;;;;4.27;3.97;;;21.80;99.90;;;;;;4993054;28;20237;-65
2021/06/24 06:14:00;;;;;;;4.37;4.10;;;21.80;99.90;;;;;;4994532;28;20167;-65
2021/06/24 06:16:27;;;;;;;4.30;4.00;;;21.60;99.90;;;;;;4994402;28;20514;-65
2021/06/24 06:18:53;;;;;;;4.90;4.50;;;21.60;99.90;;;;;;4994183;28;20246;-65
2021/06/24 06:21:19;;;;;;;5.00;4.60;;;21.90;99.90;;;;;;4993959;28;20498;-65
2021/06/24 06:23:46;;;;;;;4.00;3.60;;;22.10;99.90;;;;;;4994376;28;20164;-65
2021/06/24 06:26:11;;;;;;;4.27;3.97;;;22.60;99.90;;;;;;4994176;28;20446;-65
2021/06/24 06:28:37;;;;;;;5.00;4.50;;;22.90;99.90;;;;;;4994002;28;20808;-65
2021/06/24 06:31:03;;;;;;;4.20;3.40;;;22.70;99.90;;;;;;4993504;28;20171;-65
2021/06/24 06:33:28;;;;;;;4.93;4.53;;;22.60;99.90;;;;;;4993771;28;20172;-64
2021/06/24 06:35:55;;;;;;;4.00;3.80;;;22.20;99.90;;;;;;4994045;28;20462;-65
2021/06/24 06:38:22;;;;;;;4.20;3.90;;;22.10;99.90;;;;;;4982996;28;20199;-65
2021/06/24 06:40:49;;;;;;;4.40;4.10;;;22.10;99.90;;;;;;4973240;28;20434;-66
2021/06/24 06:43:15;;;;;;;3.70;3.40;;;22.20;99.90;;;;;;4964359;28;20933;-65
2021/06/24 06:45:46;;;;;;;3.90;3.70;;;22.40;99.90;;;;;;4980382;28;20474;-65
2021/06/24 06:48:12;;;;;;;3.43;3.13;;;22.70;99.90;;;;;;4993992;28;20481;-65
2021/06/24 06:50:39;;;;;;;3.70;3.40;;;23.20;99.90;;;;;;4993655;28;20415;-65
2021/06/24 06:53:05;;;;;;;3.53;2.73;;;23.60;99.90;;;;;;4989600;28;20179;-65
2021/06/24 06:55:31;;;;;;;3.33;3.13;;;24.00;99.90;;;;;;4993591;28;20466;-65
2021/06/24 06:57:57;;;;;;;4.93;4.43;;;24.50;99.90;;;;;;4993432;28;20903;-65
2021/06/24 07:00:24;;;;;;;4.33;4.03;;;24.70;99.90;;;;;;4993443;28;20431;-65
2021/06/24 07:02:50;;;;;;;4.20;3.90;;;24.60;99.90;;;;;;4989767;28;20427;-65
2021/06/24 07:05:16;;;;;;;3.93;3.63;;;24.20;99.90;;;;;;4993566;28;21011;-65
2021/06/24 07:07:41;;;;;;;4.03;3.80;;;23.80;99.90;;;;;;4993114;28;20465;-65
2021/06/24 07:10:07;;;;;;;3.90;3.60;;;23.40;99.90;;;;;;4993241;28;20533;-64
2021/06/24 07:12:33;;;;;;;4.93;4.17;;;22.80;99.90;;;;;;4989898;28;20222;-65
2021/06/24 07:14:59;;;;;;;4.70;4.40;;;22.70;99.90;;;;;;4993342;28;20415;-65
2021/06/24 07:17:24;;;;;;;4.07;3.80;;;22.50;99.90;;;;;;4993408;28;20248;-65
2021/06/24 07:19:50;;;;;;;4.40;4.10;;;22.40;99.90;;;;;;4992940;28;20187;-64
2021/06/24 07:22:15;;;;;;;3.87;3.67;;;22.30;99.90;;;;;;4989555;28;20179;-65
2021/06/24 07:24:41;;;;;;;4.83;3.93;;;22.10;99.90;;;;;;4993009;28;20611;-65
2021/06/24 07:27:06;;;;;;;4.80;4.50;;;21.90;99.90;;;;;;4992530;28;20207;-64
2021/06/24 07:29:32;;;;;;;4.63;4.33;;;21.80;99.90;;;;;;4992885;28;20175;-65
2021/06/24 07:31:58;;;;;;;3.97;3.77;;;21.70;99.90;;;;;;4989322;28;20222;-65
2021/06/24 07:34:23;;;;;;;4.73;4.40;;;21.60;99.90;;;;;;4992928;28;20608;-65
2021/06/24 07:36:50;;;;;;;4.63;4.33;;;21.80;99.90;;;;;;4992852;28;20253;-65
2021/06/24 07:39:15;;;;;;;4.33;4.03;;;22.40;99.90;;;;;;4992236;28;20492;-65
2021/06/24 07:41:41;;;;;;;5.17;4.87;;;22.90;99.90;;;;;;4989674;28;20509;-65
2021/06/24 07:44:07;;;;;;;4.43;4.07;;;23.20;99.90;;;;;;4992965;28;20712;-65
2021/06/24 07:46:32;;;;;;;4.30;4.00;;;23.10;99.90;;;;;;4992610;28;20512;-65
2021/06/24 07:48:58;;;;;;;3.93;3.63;;;23.10;99.90;;;;;;4992550;28;20167;-65
2021/06/24 07:51:23;;;;;;;3.70;3.50;;;23.10;99.90;;;;;;4988851;28;20238;-65
2021/06/24 07:53:49;;;;;;;4.13;3.83;;;22.90;99.90;;;;;;4992840;28;20191;-65
2021/06/24 07:56:15;;;;;;;3.83;3.63;;;22.90;99.90;;;;;;4992506;28;20193;-65
2021/06/24 07:58:41;;;;;;;4.33;4.03;;;23.10;99.90;;;;;;4992293;28;20175;-65
2021/06/24 08:01:07;;;;;;;3.70;3.40;;;23.20;99.90;;;;;;4988760;28;20812;-65
2021/06/24 08:03:35;;;;;;;4.57;4.30;;;23.60;99.90;;;;;;4981844;28;20431;-65
2021/06/24 08:06:01;;;;;;;4.37;4.07;;;23.90;99.90;;;;;;4972974;28;20458;-65
2021/06/24 08:08:27;;;;;;;2.80;2.70;;;24.20;99.90;;;;;;4987473;28;20493;-65
2021/06/24 08:10:53;;;;;;;3.63;3.17;;;24.70;99.90;;;;;;4989703;28;20454;-65
2021/06/24 08:13:19;;;;;;;3.63;3.43;;;24.80;99.90;;;;;;4990924;28;20179;-65
2021/06/24 08:15:45;;;;;;;2.97;2.70;;;25.40;99.90;;;;;;4992310;28;20442;-65
2021/06/24 08:18:11;;;;;;;3.20;3.00;;;26.00;99.90;;;;;;4992366;28;20511;-65
2021/06/24 08:20:36;;;;;;;6.67;3.70;;;26.40;99.90;;;;;;4992414;28;20580;-65
2021/06/24 08:23:02;;;;;;;14.97;13.67;;;26.70;99.90;;;;;;4988612;28;20187;-65
2021/06/24 08:25:27;;;;;;;3.80;3.50;;;26.90;99.90;;;;;;4992289;28;20390;-65
2021/06/24 08:27:53;;;;;;;3.97;3.77;;;26.60;99.90;;;;;;4991985;28;20596;-65
2021/06/24 08:30:20;;;;;;;2.60;2.43;;;26.50;99.90;;;;;;4991812;28;20176;-66
2021/06/24 08:32:46;;;;;;;3.50;3.30;;;26.40;99.90;;;;;;4988036;28;20167;-65
2021/06/24 08:35:12;;;;;;;2.87;2.70;;;26.20;99.90;;;;;;4991761;28;20419;-65
2021/06/24 08:37:39;;;;;;;2.70;2.60;;;26.40;99.90;;;;;;4991708;28;20566;-63
2021/06/24 08:40:07;;;;;;;3.17;2.97;;;26.30;99.90;;;;;;4991392;28;20175;-63
2021/06/24 08:42:34;;;;;;;3.23;3.03;;;26.30;99.90;;;;;;4988007;28;20438;-63
2021/06/24 08:45:01;;;;;;;3.70;3.40;;;26.40;99.90;;;;;;4991440;28;20848;-62
2021/06/24 08:47:29;;;;;;;3.33;3.13;;;26.40;99.90;;;;;;4991814;28;20498;-61
2021/06/24 08:49:56;;;;;;;3.50;3.20;;;26.20;99.90;;;;;;4991226;28;20423;-62
2021/06/24 08:52:22;;;;;;;2.80;2.60;;;26.10;99.90;;;;;;4988045;28;20422;-63
2021/06/24 08:54:48;;;;;;;4.60;3.40;;;25.90;99.90;;;;;;4991377;28;20430;-62
2021/06/24 08:57:15;;;;;;;3.23;3.00;;;26.00;99.90;;;;;;4991505;28;20211;-62
2021/06/24 08:59:40;;;;;;;3.37;2.77;;;26.10;99.90;;;;;;4991255;28;20184;-63
2021/06/24 09:02:10;;;;;;;3.20;3.00;;;26.50;99.90;;;;;;4987823;28;20429;-57
2021/06/24 09:04:35;;;;;;;2.97;2.73;;;26.10;99.90;;;;;;4988482;28;20215;-62
2021/06/24 09:07:07;;;;;;;3.70;3.40;;;25.90;99.90;;;;;;4989191;28;20459;-61
2021/06/24 09:09:33;;;;;;;3.53;3.23;;;25.60;99.90;;;;;;4989398;28;20244;-60
2021/06/24 09:12:03;;;;;;;4.30;3.97;;;25.40;99.90;;;;;;4987196;28;20485;-60
2021/06/24 09:14:37;;;;;;;4.20;3.80;;;25.40;99.90;;;;;;4991162;28;20459;-61
2021/06/24 09:17:03;;;;;;;4.83;4.33;;;24.90;99.90;;;;;;4991092;28;20831;-62
2021/06/24 09:19:28;;;;;;;4.70;4.00;;;24.30;99.90;;;;;;4990142;28;20430;-62
2021/06/24 09:22:02;;;;;;;6.53;4.10;;;24.20;99.90;;;;;;4987305;28;20194;-62
2021/06/24 09:24:32;;;;;;;3.30;3.10;;;24.30;99.90;;;;;;4994297;28;20191;-62
2021/06/24 09:27:00;;;;;;;4.67;3.33;;;24.60;99.90;;;;;;4994016;28;20462;-62
2021/06/24 09:29:26;;;;;;;2.70;2.50;;;24.70;99.90;;;;;;4992710;28;20427;-62
2021/06/24 09:31:55;;;;;;;3.30;3.07;;;24.70;99.90;;;;;;4990320;28;20450;-60
2021/06/24 09:34:22;;;;;;;3.07;2.83;;;24.30;99.90;;;;;;4994507;28;20167;-61
2021/06/24 09:36:51;;;;;;;4.90;3.07;;;24.00;99.90;;;;;;4994417;28;20454;-62
2021/06/24 09:39:29;;;;;;;4.10;3.90;;;24.30;99.90;;;;;;4992652;28;20521;-63
2021/06/24 09:41:59;;;;;;;4.40;2.87;;;24.60;99.90;;;;;;5005032;28;20434;-61
2021/06/24 09:44:25;;;;;;;4.10;3.30;;;25.00;99.90;;;;;;4993539;28;20515;-61
2021/06/24 09:46:51;;;;;;;3.50;3.17;;;25.30;99.90;;;;;;4995636;23;20566;-67
2021/06/24 09:49:34;;;;;;;3.73;3.53;;;25.80;99.90;;;;;;4963149;28;20435;-67
2021/06/24 09:52:02;;;;;;;3.33;3.13;;;25.70;99.90;;;;;;4960167;28;20425;-68
2021/06/24 09:54:42;;;;;;;3.47;3.27;;;26.30;99.90;;;;;;4964855;28;20424;-68
2021/06/24 09:57:08;;;;;;;3.60;3.30;;;27.50;99.90;;;;;;4964353;28;20480;-70
2021/06/24 09:59:42;;;;;;;3.80;3.50;;;28.60;99.90;;;;;;4965134;28;20467;-68
2021/06/24 10:02:10;;;;;;;3.60;3.40;;;29.00;99.90;;;;;;4960470;28;20176;-68
2021/06/24 10:04:39;;;;;;;3.93;3.60;;;28.30;99.90;;;;;;4962904;28;20444;-68
2021/06/24 10:07:08;;;;;;;3.77;3.57;;;28.00;99.90;;;;;;4963050;28;20458;-69
2021/06/24 10:09:34;;;;;;;3.60;3.30;;;27.80;99.90;;;;;;4963657;28;20436;-67
2021/06/24 10:12:00;;;;;;;4.60;3.40;;;28.00;99.90;;;;;;4960598;28;20428;-68
2021/06/24 10:14:27;;;;;;;4.27;3.03;;;27.80;99.90;;;;;;4965215;28;20191;-67
2021/06/24 10:16:58;;;;;;;4.43;3.13;;;26.90;99.90;;;;;;4963247;28;20455;-67
2021/06/24 10:19:29;;;;;;;3.73;3.50;;;25.80;99.90;;;;;;4963901;28;20519;-67
2021/06/24 10:22:04;;;;;;;3.63;3.33;;;25.10;99.90;;;;;;4961076;28;20440;-66
2021/06/24 10:24:38;;;;;;;3.67;3.33;;;24.40;99.90;;;;;;4962860;28;20436;-67
2021/06/24 10:27:07;;;;;;;3.63;3.33;;;24.20;99.90;;;;;;4963437;28;20579;-68
2021/06/24 10:29:50;;;;;;;3.60;3.27;;;24.40;99.90;;;;;;4959252;28;20436;-68
2021/06/24 10:32:33;;;;;;;3.80;3.50;;;24.90;99.90;;;;;;4959959;28;20420;-67
2021/06/24 10:35:02;;;;;;;3.00;2.80;;;25.40;99.90;;;;;;4963694;28;20442;-68
2021/06/24 10:37:30;;;;;;;2.90;2.70;;;25.80;99.90;;;;;;4963908;28;20813;-66
2021/06/24 10:40:02;;;;;;;3.67;3.37;;;25.30;99.90;;;;;;4961883;28;20449;-67
2021/06/24 10:42:28;;;;;;;3.07;2.87;;;24.70;99.90;;;;;;4959212;28;20445;-67
2021/06/24 10:45:02;;;;;;;6.73;3.53;;;24.50;99.90;;;;;;4963972;28;20442;-67
2021/06/24 10:47:40;;;;;;;3.87;3.67;;;24.50;99.90;;;;;;4964348;28;20467;-68
2021/06/24 10:50:24;;;;;;;2.80;2.50;;;24.70;99.90;;;;;;4963201;28;20588;-68
2021/06/24 10:52:50;;;;;;;2.00;1.90;;;24.80;99.90;;;;;;4960590;28;20416;-66
2021/06/24 10:55:42;;;;;;;4.73;1.93;;;25.00;99.90;;;;;;4963858;28;20475;-65
2021/06/24 10:58:10;;;;;;;2.47;2.27;;;25.80;99.90;;;;;;4962911;28;20280;-66
2021/06/24 11:00:38;;;;;;;4.47;2.00;;;27.60;99.90;;;;;;4965468;28;20435;-66
2021/06/24 11:03:09;;;;;;;2.20;2.10;;;28.70;99.90;;;;;;4961304;28;20816;-66
2021/06/24 11:05:40;;;;;;;2.13;2.03;;;29.60;98.00;;;;;;4960319;28;20448;-66
2021/06/24 11:08:13;;;;;;;2.43;2.23;;;29.70;96.40;;;;;;4962403;28;20486;-66
2021/06/24 11:11:07;;;;;;;2.10;2.00;;;29.50;95.10;;;;;;4962639;28;20432;-65
2021/06/24 11:16:21;;;;;;;2.13;2.00;;;29.40;96.00;;;;;;4955394;28;20536;-65
2021/06/24 11:19:10;;;;;;;2.50;1.80;;;29.10;95.60;;;;;;4941732;28;20428;-65
2021/06/24 11:21:36;;;;;;;1.93;1.83;;;28.80;95.40;;;;;;4959504;28;20436;-65
2021/06/24 11:24:12;;;;;;;1.93;1.83;;;28.60;96.60;;;;;;4954001;28;20843;-65
2021/06/24 11:26:53;;;;;;;2.60;2.50;;;28.70;96.30;;;;;;4956241;28;20204;-65
2021/06/24 11:29:41;;;;;;;2.20;2.10;;;29.90;94.20;;;;;;4953703;28;20429;-65
2021/06/24 11:32:28;;;;;;;2.00;1.90;;;30.60;93.20;;;;;;4951530;28;20455;-65
2021/06/24 11:35:15;;;;;;;2.10;2.00;;;32.40;90.30;;;;;;4938977;28;20445;-66
2021/06/24 11:37:40;;;;;;;2.20;2.10;;;32.50;87.50;;;;;;4963072;28;20514;-65
2021/06/24 11:40:08;;;;;;;2.60;2.30;;;32.70;82.10;;;;;;4969207;28;20556;-65
2021/06/24 11:42:43;;;;;;;2.10;2.00;;;31.10;83.60;;;;;;4951073;28;20531;-65
2021/06/24 11:45:11;;;;;;;2.10;2.00;;;30.50;84.50;;;;;;4953396;28;20422;-64
2021/06/24 11:47:38;;;;;;;2.33;2.13;;;30.70;86.20;;;;;;4954014;28;20541;-66
2021/06/24 12:04:14;;;;;;;2.73;2.40;;;25.20;97.40;;;;;;4967450;28;20495;-65
2021/06/24 12:06:54;;;;;;;2.10;2.00;;;24.80;98.00;;;;;;4943897;28;20832;-64
2021/06/24 12:09:26;;;;;;;2.07;1.97;;;25.00;98.90;;;;;;4930920;29;20484;-65
2021/06/24 12:11:58;;;;;;;2.80;2.60;;;25.10;99.40;;;;;;4938156;28;20427;-65
2021/06/24 12:14:29;;;;;;;1.73;1.63;;;25.40;99.10;;;;;;4955565;28;20431;-64
2021/06/24 12:17:07;;;;;;;2.33;1.63;;;25.70;98.90;;;;;;4958315;28;20459;-65
2021/06/24 12:20:01;;;;;;;1.97;1.87;;;26.70;97.30;;;;;;4949805;28;20420;-65
2021/06/24 12:22:36;;;;;;;2.10;1.40;;;26.60;97.30;;;;;;4949421;28;20431;-65
2021/06/24 12:25:14;;;;;;;2.10;1.33;;;26.70;94.90;;;;;;4951070;29;20428;-65
2021/06/24 12:27:48;;;;;;;2.27;2.00;;;26.60;94.90;;;;;;4950352;28;20463;-65
2021/06/24 12:30:36;;;;;;;2.07;1.97;;;26.20;93.30;;;;;;4938341;28;20970;-65
2021/06/24 12:33:07;;;;;;;2.30;1.60;;;25.90;94.50;;;;;;4951993;28;20420;-65
2021/06/24 12:35:38;;;;;;;1.43;1.30;;;26.10;95.20;;;;;;4953951;28;20425;-65
2021/06/24 12:38:09;;;;;;;1.50;1.23;;;27.00;93.40;;;;;;4948790;29;20435;-64
2021/06/24 12:41:07;;;;;;;1.60;1.50;;;27.70;92.60;;;;;;4949800;29;20957;-65
2021/06/24 12:43:34;;;;;;;1.47;1.37;;;29.00;90.90;;;;;;4941872;28;20428;-65
2021/06/24 12:46:03;;;;;;;1.40;1.37;;;30.00;85.90;;;;;;4950049;28;20472;-65
2021/06/24 12:48:34;;;;;;;1.43;1.23;;;31.10;85.00;;;;;;4949440;28;20464;-65
2021/06/24 12:51:22;;;;;;;1.40;1.30;;;30.50;82.60;;;;;;4951299;28;20427;-64
2021/06/24 12:53:51;;;;;;;0.90;0.90;;;30.20;82.40;;;;;;4960335;28;20431;-65
2021/06/24 12:56:31;;;;;;;1.77;1.30;;;31.30;76.00;;;;;;4950540;28;20515;-65
2021/06/24 12:59:10;;;;;;;1.33;1.10;;;31.70;75.60;;;;;;4953539;28;20487;-65
2021/06/24 13:01:41;;;;;;;1.33;1.30;;;33.30;72.60;;;;;;4951625;28;21000;-65
2021/06/24 13:04:12;;;;;;;1.27;1.17;;;36.90;63.50;;;;;;4953242;28;20491;-64
2021/06/24 13:06:48;;;;;;;1.40;1.40;;;39.60;55.00;;;;;;4953576;28;20455;-63